sensor_id;sensor_type;location;lat;lon;timestamp;P1;durP1;ratioP1;P2;durP2;ratioP2
14040;SDS011;7095;51.388;6.196;2023-07-09T00:02:21;16.87;;;9.63;;
14040;SDS011;7095;51.388;6.196;2023-07-09T00:04:50;14.77;;;9.37;;
14040;SDS011;7095;51.388;6.196;2023-07-09T00:07:21;17.50;;;9.27;;
14040;SDS011;7095;51.388;6.196;2023-07-09T00:09:54;15.33;;;8.17;;
14040;SDS011;7095;51.388;6.196;2023-07-09T00:12:23;16.03;;;8.60;;
14040;SDS011;7095;51.388;6.196;2023-07-09T00:14:52;14.67;;;8.83;;
14040;SDS011;7095;51.388;6.196;2023-07-09T00:17:26;10.63;;;7.93;;
14040;SDS011;7095;51.388;6.196;2023-07-09T00:19:56;13.50;;;8.70;;
14040;SDS011;7095;51.388;6.196;2023-07-09T00:22:24;11.50;;;7.47;;
14040;SDS011;7095;51.388;6.196;2023-07-09T00:24:55;10.63;;;7.10;;
14040;SDS011;7095;51.388;6.196;2023-07-09T00:27:25;15.37;;;7.97;;
14040;SDS011;7095;51.388;6.196;2023-07-09T00:29:58;16.00;;;8.70;;
14040;SDS011;7095;51.388;6.196;2023-07-09T00:32:27;17.30;;;8.03;;
14040;SDS011;7095;51.388;6.196;2023-07-09T00:34:56;14.23;;;8.57;;
14040;SDS011;7095;51.388;6.196;2023-07-09T00:37:24;13.87;;;8.57;;
14040;SDS011;7095;51.388;6.196;2023-07-09T00:39:54;10.43;;;7.50;;
14040;SDS011;7095;51.388;6.196;2023-07-09T00:42:24;13.27;;;8.70;;
14040;SDS011;7095;51.388;6.196;2023-07-09T00:44:53;13.33;;;7.60;;
14040;SDS011;7095;51.388;6.196;2023-07-09T00:47:31;11.97;;;8.03;;
14040;SDS011;7095;51.388;6.196;2023-07-09T00:50:15;20.60;;;8.73;;
14040;SDS011;7095;51.388;6.196;2023-07-09T00:52:51;13.77;;;8.60;;
14040;SDS011;7095;51.388;6.196;2023-07-09T00:55:24;13.83;;;7.57;;
14040;SDS011;7095;51.388;6.196;2023-07-09T00:57:59;12.37;;;7.70;;
14040;SDS011;7095;51.388;6.196;2023-07-09T01:00:36;14.43;;;8.13;;
14040;SDS011;7095;51.388;6.196;2023-07-09T01:03:15;12.97;;;8.10;;
14040;SDS011;7095;51.388;6.196;2023-07-09T01:05:50;17.60;;;8.27;;
14040;SDS011;7095;51.388;6.196;2023-07-09T01:08:22;12.67;;;9.00;;
14040;SDS011;7095;51.388;6.196;2023-07-09T01:10:52;14.30;;;8.53;;
14040;SDS011;7095;51.388;6.196;2023-07-09T01:13:22;16.30;;;8.47;;
14040;SDS011;7095;51.388;6.196;2023-07-09T01:15:53;12.30;;;8.07;;
14040;SDS011;7095;51.388;6.196;2023-07-09T01:18:22;11.70;;;7.70;;
14040;SDS011;7095;51.388;6.196;2023-07-09T01:20:51;11.37;;;7.47;;
14040;SDS011;7095;51.388;6.196;2023-07-09T01:23:28;15.63;;;8.00;;
14040;SDS011;7095;51.388;6.196;2023-07-09T01:25:58;11.37;;;7.50;;
14040;SDS011;7095;51.388;6.196;2023-07-09T01:28:27;12.37;;;7.43;;
14040;SDS011;7095;51.388;6.196;2023-07-09T01:30:56;11.60;;;7.57;;
14040;SDS011;7095;51.388;6.196;2023-07-09T01:33:27;11.37;;;8.57;;
14040;SDS011;7095;51.388;6.196;2023-07-09T01:35:58;12.27;;;8.60;;
14040;SDS011;7095;51.388;6.196;2023-07-09T01:38:27;9.63;;;7.73;;
14040;SDS011;7095;51.388;6.196;2023-07-09T01:40:57;16.90;;;9.43;;
14040;SDS011;7095;51.388;6.196;2023-07-09T01:43:29;25.73;;;8.87;;
14040;SDS011;7095;51.388;6.196;2023-07-09T01:45:57;11.80;;;8.37;;
14040;SDS011;7095;51.388;6.196;2023-07-09T01:48:27;12.00;;;8.83;;
14040;SDS011;7095;51.388;6.196;2023-07-09T01:50:55;13.80;;;8.40;;
14040;SDS011;7095;51.388;6.196;2023-07-09T01:53:25;11.63;;;8.60;;
14040;SDS011;7095;51.388;6.196;2023-07-09T01:55:58;12.90;;;8.40;;
14040;SDS011;7095;51.388;6.196;2023-07-09T01:58:28;10.63;;;8.40;;
14040;SDS011;7095;51.388;6.196;2023-07-09T02:00:58;12.60;;;8.83;;
14040;SDS011;7095;51.388;6.196;2023-07-09T02:03:27;10.47;;;7.67;;
14040;SDS011;7095;51.388;6.196;2023-07-09T02:05:56;12.23;;;6.90;;
14040;SDS011;7095;51.388;6.196;2023-07-09T02:08:28;15.03;;;7.87;;
14040;SDS011;7095;51.388;6.196;2023-07-09T02:10:56;13.87;;;8.23;;
14040;SDS011;7095;51.388;6.196;2023-07-09T02:13:25;10.10;;;7.97;;
14040;SDS011;7095;51.388;6.196;2023-07-09T02:15:54;10.63;;;8.80;;
14040;SDS011;7095;51.388;6.196;2023-07-09T02:18:22;10.47;;;7.13;;
14040;SDS011;7095;51.388;6.196;2023-07-09T02:20:51;14.47;;;7.83;;
14040;SDS011;7095;51.388;6.196;2023-07-09T02:23:19;11.87;;;7.60;;
14040;SDS011;7095;51.388;6.196;2023-07-09T02:25:49;11.70;;;8.07;;
14040;SDS011;7095;51.388;6.196;2023-07-09T02:28:18;20.07;;;9.37;;
14040;SDS011;7095;51.388;6.196;2023-07-09T02:30:47;12.83;;;7.37;;
14040;SDS011;7095;51.388;6.196;2023-07-09T02:33:15;14.53;;;9.17;;
14040;SDS011;7095;51.388;6.196;2023-07-09T02:35:47;13.30;;;9.10;;
14040;SDS011;7095;51.388;6.196;2023-07-09T02:38:15;14.37;;;8.30;;
14040;SDS011;7095;51.388;6.196;2023-07-09T02:40:44;14.20;;;8.83;;
14040;SDS011;7095;51.388;6.196;2023-07-09T02:43:14;13.40;;;8.80;;
14040;SDS011;7095;51.388;6.196;2023-07-09T02:45:42;12.57;;;8.37;;
14040;SDS011;7095;51.388;6.196;2023-07-09T02:48:11;16.13;;;8.07;;
14040;SDS011;7095;51.388;6.196;2023-07-09T02:50:40;11.43;;;8.23;;
14040;SDS011;7095;51.388;6.196;2023-07-09T02:53:08;13.07;;;8.67;;
14040;SDS011;7095;51.388;6.196;2023-07-09T02:55:37;18.43;;;8.60;;
14040;SDS011;7095;51.388;6.196;2023-07-09T02:58:06;15.60;;;8.80;;
14040;SDS011;7095;51.388;6.196;2023-07-09T03:00:36;12.03;;;9.13;;
14040;SDS011;7095;51.388;6.196;2023-07-09T03:03:04;16.50;;;9.50;;
14040;SDS011;7095;51.388;6.196;2023-07-09T03:05:33;20.10;;;9.83;;
14040;SDS011;7095;51.388;6.196;2023-07-09T03:08:02;15.77;;;9.50;;
14040;SDS011;7095;51.388;6.196;2023-07-09T03:10:29;24.27;;;9.50;;
14040;SDS011;7095;51.388;6.196;2023-07-09T03:12:58;14.03;;;9.93;;
14040;SDS011;7095;51.388;6.196;2023-07-09T03:15:26;17.13;;;9.90;;
14040;SDS011;7095;51.388;6.196;2023-07-09T03:17:56;20.53;;;9.67;;
14040;SDS011;7095;51.388;6.196;2023-07-09T03:20:25;20.60;;;10.10;;
14040;SDS011;7095;51.388;6.196;2023-07-09T03:22:54;14.60;;;8.47;;
14040;SDS011;7095;51.388;6.196;2023-07-09T03:25:22;18.03;;;9.73;;
14040;SDS011;7095;51.388;6.196;2023-07-09T03:27:51;11.53;;;8.37;;
14040;SDS011;7095;51.388;6.196;2023-07-09T03:30:21;13.03;;;9.10;;
14040;SDS011;7095;51.388;6.196;2023-07-09T03:32:50;14.33;;;9.50;;
14040;SDS011;7095;51.388;6.196;2023-07-09T03:35:20;13.20;;;9.27;;
14040;SDS011;7095;51.388;6.196;2023-07-09T03:37:48;16.27;;;9.23;;
14040;SDS011;7095;51.388;6.196;2023-07-09T03:40:20;14.87;;;9.60;;
14040;SDS011;7095;51.388;6.196;2023-07-09T03:42:50;18.70;;;9.30;;
14040;SDS011;7095;51.388;6.196;2023-07-09T03:45:18;16.00;;;8.60;;
14040;SDS011;7095;51.388;6.196;2023-07-09T03:47:47;14.60;;;8.50;;
14040;SDS011;7095;51.388;6.196;2023-07-09T03:50:16;17.50;;;8.93;;
14040;SDS011;7095;51.388;6.196;2023-07-09T03:52:46;17.27;;;9.10;;
14040;SDS011;7095;51.388;6.196;2023-07-09T03:55:15;20.00;;;9.70;;
14040;SDS011;7095;51.388;6.196;2023-07-09T03:57:44;16.00;;;9.63;;
14040;SDS011;7095;51.388;6.196;2023-07-09T04:00:13;22.23;;;9.10;;
14040;SDS011;7095;51.388;6.196;2023-07-09T04:02:42;13.87;;;8.93;;
14040;SDS011;7095;51.388;6.196;2023-07-09T04:05:11;15.83;;;9.67;;
14040;SDS011;7095;51.388;6.196;2023-07-09T04:07:40;12.70;;;8.40;;
14040;SDS011;7095;51.388;6.196;2023-07-09T04:10:10;14.43;;;9.10;;
14040;SDS011;7095;51.388;6.196;2023-07-09T04:12:39;15.03;;;9.47;;
14040;SDS011;7095;51.388;6.196;2023-07-09T04:15:08;15.73;;;9.27;;
14040;SDS011;7095;51.388;6.196;2023-07-09T04:17:39;18.90;;;9.03;;
14040;SDS011;7095;51.388;6.196;2023-07-09T04:20:09;15.43;;;9.00;;
14040;SDS011;7095;51.388;6.196;2023-07-09T04:22:38;16.30;;;9.30;;
14040;SDS011;7095;51.388;6.196;2023-07-09T04:25:07;12.10;;;8.50;;
14040;SDS011;7095;51.388;6.196;2023-07-09T04:27:39;15.40;;;10.60;;
14040;SDS011;7095;51.388;6.196;2023-07-09T04:30:08;18.17;;;9.20;;
14040;SDS011;7095;51.388;6.196;2023-07-09T04:32:39;14.80;;;9.10;;
14040;SDS011;7095;51.388;6.196;2023-07-09T04:35:11;13.50;;;8.77;;
14040;SDS011;7095;51.388;6.196;2023-07-09T04:37:46;18.23;;;8.23;;
14040;SDS011;7095;51.388;6.196;2023-07-09T04:40:20;27.03;;;9.43;;
14040;SDS011;7095;51.388;6.196;2023-07-09T04:42:51;15.47;;;8.30;;
14040;SDS011;7095;51.388;6.196;2023-07-09T04:45:20;16.97;;;9.23;;
14040;SDS011;7095;51.388;6.196;2023-07-09T04:47:51;14.00;;;8.60;;
14040;SDS011;7095;51.388;6.196;2023-07-09T04:50:20;19.20;;;9.20;;
14040;SDS011;7095;51.388;6.196;2023-07-09T04:52:53;16.47;;;8.30;;
14040;SDS011;7095;51.388;6.196;2023-07-09T04:55:23;17.73;;;9.60;;
14040;SDS011;7095;51.388;6.196;2023-07-09T04:57:53;17.57;;;9.43;;
14040;SDS011;7095;51.388;6.196;2023-07-09T05:00:22;14.83;;;9.03;;
14040;SDS011;7095;51.388;6.196;2023-07-09T05:02:54;12.20;;;9.17;;
14040;SDS011;7095;51.388;6.196;2023-07-09T05:05:23;16.93;;;8.53;;
14040;SDS011;7095;51.388;6.196;2023-07-09T05:07:52;16.40;;;9.50;;
14040;SDS011;7095;51.388;6.196;2023-07-09T05:10:20;12.13;;;8.97;;
14040;SDS011;7095;51.388;6.196;2023-07-09T05:12:51;15.67;;;9.20;;
14040;SDS011;7095;51.388;6.196;2023-07-09T05:15:22;10.77;;;8.83;;
14040;SDS011;7095;51.388;6.196;2023-07-09T05:17:52;12.50;;;9.20;;
14040;SDS011;7095;51.388;6.196;2023-07-09T05:20:20;13.40;;;8.90;;
14040;SDS011;7095;51.388;6.196;2023-07-09T05:22:49;15.27;;;9.23;;
14040;SDS011;7095;51.388;6.196;2023-07-09T05:25:17;14.17;;;9.13;;
14040;SDS011;7095;51.388;6.196;2023-07-09T05:27:46;16.47;;;10.17;;
14040;SDS011;7095;51.388;6.196;2023-07-09T05:30:16;21.67;;;10.37;;
14040;SDS011;7095;51.388;6.196;2023-07-09T05:32:46;11.30;;;8.90;;
14040;SDS011;7095;51.388;6.196;2023-07-09T05:35:15;22.53;;;9.77;;
14040;SDS011;7095;51.388;6.196;2023-07-09T05:37:44;15.87;;;8.87;;
14040;SDS011;7095;51.388;6.196;2023-07-09T05:40:13;15.57;;;9.03;;
14040;SDS011;7095;51.388;6.196;2023-07-09T05:42:41;14.57;;;8.93;;
14040;SDS011;7095;51.388;6.196;2023-07-09T05:45:10;12.77;;;8.50;;
14040;SDS011;7095;51.388;6.196;2023-07-09T05:47:41;15.40;;;9.33;;
14040;SDS011;7095;51.388;6.196;2023-07-09T05:50:09;14.63;;;10.17;;
14040;SDS011;7095;51.388;6.196;2023-07-09T05:52:39;14.20;;;8.50;;
14040;SDS011;7095;51.388;6.196;2023-07-09T05:55:07;16.57;;;9.53;;
14040;SDS011;7095;51.388;6.196;2023-07-09T05:57:37;16.37;;;8.80;;
14040;SDS011;7095;51.388;6.196;2023-07-09T06:00:06;15.13;;;9.13;;
14040;SDS011;7095;51.388;6.196;2023-07-09T06:02:44;12.93;;;8.13;;
14040;SDS011;7095;51.388;6.196;2023-07-09T06:05:13;12.77;;;8.30;;
14040;SDS011;7095;51.388;6.196;2023-07-09T06:07:42;12.17;;;9.20;;
14040;SDS011;7095;51.388;6.196;2023-07-09T06:10:11;14.77;;;8.87;;
14040;SDS011;7095;51.388;6.196;2023-07-09T06:12:40;18.80;;;8.70;;
14040;SDS011;7095;51.388;6.196;2023-07-09T06:15:09;14.80;;;8.30;;
14040;SDS011;7095;51.388;6.196;2023-07-09T06:17:39;14.53;;;8.20;;
14040;SDS011;7095;51.388;6.196;2023-07-09T06:20:10;10.33;;;7.97;;
14040;SDS011;7095;51.388;6.196;2023-07-09T06:22:39;17.57;;;8.97;;
14040;SDS011;7095;51.388;6.196;2023-07-09T06:25:08;15.30;;;8.50;;
14040;SDS011;7095;51.388;6.196;2023-07-09T06:27:37;10.30;;;8.73;;
14040;SDS011;7095;51.388;6.196;2023-07-09T06:30:07;16.77;;;9.53;;
14040;SDS011;7095;51.388;6.196;2023-07-09T06:32:36;15.33;;;9.60;;
14040;SDS011;7095;51.388;6.196;2023-07-09T06:35:05;13.90;;;7.93;;
14040;SDS011;7095;51.388;6.196;2023-07-09T06:37:36;12.80;;;8.13;;
14040;SDS011;7095;51.388;6.196;2023-07-09T06:40:05;11.70;;;8.83;;
14040;SDS011;7095;51.388;6.196;2023-07-09T06:42:36;15.83;;;7.80;;
14040;SDS011;7095;51.388;6.196;2023-07-09T06:45:21;14.53;;;7.50;;
14040;SDS011;7095;51.388;6.196;2023-07-09T06:47:49;9.40;;;7.75;;
14040;SDS011;7095;51.388;6.196;2023-07-09T06:50:18;11.33;;;8.00;;
14040;SDS011;7095;51.388;6.196;2023-07-09T06:52:49;13.63;;;8.47;;
14040;SDS011;7095;51.388;6.196;2023-07-09T06:55:18;11.07;;;7.60;;
14040;SDS011;7095;51.388;6.196;2023-07-09T06:57:47;11.88;;;8.32;;
14040;SDS011;7095;51.388;6.196;2023-07-09T07:00:18;11.32;;;7.65;;
14040;SDS011;7095;51.388;6.196;2023-07-09T07:02:47;13.48;;;8.13;;
14040;SDS011;7095;51.388;6.196;2023-07-09T07:05:16;15.77;;;8.30;;
14040;SDS011;7095;51.388;6.196;2023-07-09T07:07:45;12.00;;;8.10;;
14040;SDS011;7095;51.388;6.196;2023-07-09T07:10:15;11.07;;;8.02;;
14040;SDS011;7095;51.388;6.196;2023-07-09T07:12:44;11.82;;;8.07;;
14040;SDS011;7095;51.388;6.196;2023-07-09T07:15:15;11.65;;;7.35;;
14040;SDS011;7095;51.388;6.196;2023-07-09T07:17:45;11.40;;;7.90;;
14040;SDS011;7095;51.388;6.196;2023-07-09T07:20:14;10.57;;;6.93;;
14040;SDS011;7095;51.388;6.196;2023-07-09T07:22:45;11.75;;;8.15;;
14040;SDS011;7095;51.388;6.196;2023-07-09T07:25:13;12.55;;;8.45;;
14040;SDS011;7095;51.388;6.196;2023-07-09T07:27:44;11.82;;;7.80;;
14040;SDS011;7095;51.388;6.196;2023-07-09T07:30:13;9.50;;;7.47;;
14040;SDS011;7095;51.388;6.196;2023-07-09T07:32:42;9.10;;;7.60;;
14040;SDS011;7095;51.388;6.196;2023-07-09T07:35:14;10.98;;;8.15;;
14040;SDS011;7095;51.388;6.196;2023-07-09T07:37:44;17.45;;;7.68;;
14040;SDS011;7095;51.388;6.196;2023-07-09T07:40:12;15.05;;;8.13;;
14040;SDS011;7095;51.388;6.196;2023-07-09T07:42:43;12.23;;;7.70;;
14040;SDS011;7095;51.388;6.196;2023-07-09T07:45:14;13.95;;;7.47;;
14040;SDS011;7095;51.388;6.196;2023-07-09T07:47:43;10.52;;;6.93;;
14040;SDS011;7095;51.388;6.196;2023-07-09T07:50:12;14.60;;;8.02;;
14040;SDS011;7095;51.388;6.196;2023-07-09T07:52:40;11.75;;;7.22;;
14040;SDS011;7095;51.388;6.196;2023-07-09T07:55:09;11.13;;;6.93;;
14040;SDS011;7095;51.388;6.196;2023-07-09T07:57:46;11.68;;;6.75;;
14040;SDS011;7095;51.388;6.196;2023-07-09T08:00:17;13.73;;;7.82;;
14040;SDS011;7095;51.388;6.196;2023-07-09T08:02:46;11.73;;;7.22;;
14040;SDS011;7095;51.388;6.196;2023-07-09T08:05:15;12.68;;;7.07;;
14040;SDS011;7095;51.388;6.196;2023-07-09T08:07:44;10.15;;;7.07;;
14040;SDS011;7095;51.388;6.196;2023-07-09T08:10:12;25.50;;;8.35;;
14040;SDS011;7095;51.388;6.196;2023-07-09T08:12:42;12.02;;;7.47;;
14040;SDS011;7095;51.388;6.196;2023-07-09T08:15:12;13.88;;;7.43;;
14040;SDS011;7095;51.388;6.196;2023-07-09T08:17:43;7.97;;;6.60;;
14040;SDS011;7095;51.388;6.196;2023-07-09T08:20:12;14.57;;;7.95;;
14040;SDS011;7095;51.388;6.196;2023-07-09T08:22:41;11.05;;;6.90;;
14040;SDS011;7095;51.388;6.196;2023-07-09T08:25:11;9.90;;;7.18;;
14040;SDS011;7095;51.388;6.196;2023-07-09T08:27:40;15.27;;;7.15;;
14040;SDS011;7095;51.388;6.196;2023-07-09T08:30:09;11.18;;;6.93;;
14040;SDS011;7095;51.388;6.196;2023-07-09T08:32:40;9.80;;;6.70;;
14040;SDS011;7095;51.388;6.196;2023-07-09T08:35:08;11.23;;;6.35;;
14040;SDS011;7095;51.388;6.196;2023-07-09T08:37:43;11.15;;;6.93;;
14040;SDS011;7095;51.388;6.196;2023-07-09T08:40:12;10.50;;;6.63;;
14040;SDS011;7095;51.388;6.196;2023-07-09T08:42:43;8.77;;;6.13;;
14040;SDS011;7095;51.388;6.196;2023-07-09T08:45:29;9.23;;;6.22;;
14040;SDS011;7095;51.388;6.196;2023-07-09T08:48:10;11.70;;;6.35;;
14040;SDS011;7095;51.388;6.196;2023-07-09T08:50:45;13.88;;;7.28;;
14040;SDS011;7095;51.388;6.196;2023-07-09T08:53:21;14.40;;;7.30;;
14040;SDS011;7095;51.388;6.196;2023-07-09T08:56:01;7.80;;;5.85;;
14040;SDS011;7095;51.388;6.196;2023-07-09T08:58:33;9.82;;;5.47;;
14040;SDS011;7095;51.388;6.196;2023-07-09T09:01:03;14.77;;;7.20;;
14040;SDS011;7095;51.388;6.196;2023-07-09T09:03:37;11.27;;;5.78;;
14040;SDS011;7095;51.388;6.196;2023-07-09T09:06:12;8.68;;;5.35;;
14040;SDS011;7095;51.388;6.196;2023-07-09T09:08:44;10.43;;;5.45;;
14040;SDS011;7095;51.388;6.196;2023-07-09T09:11:21;12.15;;;5.85;;
14040;SDS011;7095;51.388;6.196;2023-07-09T09:13:55;11.25;;;5.85;;
14040;SDS011;7095;51.388;6.196;2023-07-09T09:16:30;7.95;;;5.53;;
14040;SDS011;7095;51.388;6.196;2023-07-09T09:19:02;10.57;;;6.13;;
14040;SDS011;7095;51.388;6.196;2023-07-09T09:21:41;10.57;;;6.28;;
14040;SDS011;7095;51.388;6.196;2023-07-09T09:24:14;10.73;;;5.93;;
14040;SDS011;7095;51.388;6.196;2023-07-09T09:26:47;11.82;;;6.70;;
14040;SDS011;7095;51.388;6.196;2023-07-09T09:29:18;12.45;;;6.15;;
14040;SDS011;7095;51.388;6.196;2023-07-09T09:31:48;8.85;;;6.20;;
14040;SDS011;7095;51.388;6.196;2023-07-09T09:34:24;10.52;;;6.40;;
14040;SDS011;7095;51.388;6.196;2023-07-09T09:36:58;8.23;;;4.97;;
14040;SDS011;7095;51.388;6.196;2023-07-09T09:39:28;8.85;;;5.90;;
14040;SDS011;7095;51.388;6.196;2023-07-09T09:41:57;7.43;;;4.93;;
14040;SDS011;7095;51.388;6.196;2023-07-09T09:44:27;8.85;;;6.15;;
14040;SDS011;7095;51.388;6.196;2023-07-09T09:46:57;10.07;;;5.95;;
14040;SDS011;7095;51.388;6.196;2023-07-09T09:49:28;8.85;;;5.80;;
14040;SDS011;7095;51.388;6.196;2023-07-09T09:52:01;15.25;;;5.80;;
14040;SDS011;7095;51.388;6.196;2023-07-09T09:54:30;10.55;;;6.43;;
14040;SDS011;7095;51.388;6.196;2023-07-09T09:56:59;12.43;;;6.07;;
14040;SDS011;7095;51.388;6.196;2023-07-09T09:59:30;11.35;;;5.70;;
14040;SDS011;7095;51.388;6.196;2023-07-09T10:02:01;7.90;;;5.72;;
14040;SDS011;7095;51.388;6.196;2023-07-09T10:04:44;7.93;;;5.07;;
14040;SDS011;7095;51.388;6.196;2023-07-09T10:07:16;14.13;;;5.53;;
14040;SDS011;7095;51.388;6.196;2023-07-09T10:09:51;8.02;;;4.65;;
14040;SDS011;7095;51.388;6.196;2023-07-09T10:12:29;6.97;;;5.18;;
14040;SDS011;7095;51.388;6.196;2023-07-09T10:15:13;8.30;;;5.13;;
14040;SDS011;7095;51.388;6.196;2023-07-09T10:17:54;6.70;;;5.10;;
14040;SDS011;7095;51.388;6.196;2023-07-09T10:20:34;8.05;;;4.93;;
14040;SDS011;7095;51.388;6.196;2023-07-09T10:23:12;8.73;;;5.07;;
14040;SDS011;7095;51.388;6.196;2023-07-09T10:25:48;9.10;;;5.38;;
14040;SDS011;7095;51.388;6.196;2023-07-09T10:28:32;7.40;;;4.85;;
14040;SDS011;7095;51.388;6.196;2023-07-09T10:31:12;8.73;;;5.45;;
14040;SDS011;7095;51.388;6.196;2023-07-09T10:33:49;9.55;;;5.53;;
14040;SDS011;7095;51.388;6.196;2023-07-09T10:36:38;9.48;;;5.20;;
14040;SDS011;7095;51.388;6.196;2023-07-09T10:39:26;8.10;;;4.50;;
14040;SDS011;7095;51.388;6.196;2023-07-09T10:42:00;8.25;;;4.68;;
14040;SDS011;7095;51.388;6.196;2023-07-09T10:44:30;11.45;;;5.45;;
14040;SDS011;7095;51.388;6.196;2023-07-09T10:47:03;8.95;;;5.18;;
14040;SDS011;7095;51.388;6.196;2023-07-09T10:49:36;8.68;;;4.85;;
14040;SDS011;7095;51.388;6.196;2023-07-09T10:52:10;7.57;;;5.40;;
14040;SDS011;7095;51.388;6.196;2023-07-09T10:54:50;8.35;;;4.80;;
14040;SDS011;7095;51.388;6.196;2023-07-09T10:57:28;6.57;;;5.40;;
14040;SDS011;7095;51.388;6.196;2023-07-09T10:59:59;8.07;;;5.28;;
14040;SDS011;7095;51.388;6.196;2023-07-09T11:02:31;5.75;;;4.53;;
14040;SDS011;7095;51.388;6.196;2023-07-09T11:05:03;8.52;;;4.90;;
14040;SDS011;7095;51.388;6.196;2023-07-09T11:07:37;9.32;;;4.85;;
14040;SDS011;7095;51.388;6.196;2023-07-09T11:10:12;12.38;;;5.35;;
14040;SDS011;7095;51.388;6.196;2023-07-09T11:12:50;8.75;;;4.70;;
14040;SDS011;7095;51.388;6.196;2023-07-09T11:15:25;7.55;;;4.80;;
14040;SDS011;7095;51.388;6.196;2023-07-09T11:17:59;5.43;;;4.85;;
14040;SDS011;7095;51.388;6.196;2023-07-09T11:20:31;9.38;;;5.55;;
14040;SDS011;7095;51.388;6.196;2023-07-09T11:23:03;6.10;;;4.78;;
14040;SDS011;7095;51.388;6.196;2023-07-09T11:25:40;11.45;;;4.82;;
14040;SDS011;7095;51.388;6.196;2023-07-09T11:28:10;8.82;;;4.25;;
14040;SDS011;7095;51.388;6.196;2023-07-09T11:30:46;8.65;;;4.65;;
14040;SDS011;7095;51.388;6.196;2023-07-09T11:33:17;6.28;;;4.72;;
14040;SDS011;7095;51.388;6.196;2023-07-09T11:35:52;5.72;;;3.83;;
14040;SDS011;7095;51.388;6.196;2023-07-09T11:38:24;5.72;;;4.35;;
14040;SDS011;7095;51.388;6.196;2023-07-09T11:40:53;10.02;;;5.38;;
14040;SDS011;7095;51.388;6.196;2023-07-09T11:43:31;11.15;;;5.18;;
14040;SDS011;7095;51.388;6.196;2023-07-09T11:46:05;8.00;;;4.05;;
14040;SDS011;7095;51.388;6.196;2023-07-09T11:48:54;11.02;;;4.63;;
14040;SDS011;7095;51.388;6.196;2023-07-09T11:51:28;5.72;;;4.38;;
14040;SDS011;7095;51.388;6.196;2023-07-09T11:54:07;7.85;;;5.53;;
14040;SDS011;7095;51.388;6.196;2023-07-09T11:56:40;9.77;;;4.88;;
14040;SDS011;7095;51.388;6.196;2023-07-09T11:59:09;8.77;;;4.88;;
14040;SDS011;7095;51.388;6.196;2023-07-09T12:01:41;8.23;;;4.55;;
14040;SDS011;7095;51.388;6.196;2023-07-09T12:04:12;7.20;;;5.00;;
14040;SDS011;7095;51.388;6.196;2023-07-09T12:06:42;10.35;;;4.70;;
14040;SDS011;7095;51.388;6.196;2023-07-09T12:09:15;8.82;;;4.78;;
14040;SDS011;7095;51.388;6.196;2023-07-09T12:11:45;11.38;;;5.07;;
14040;SDS011;7095;51.388;6.196;2023-07-09T12:14:17;8.90;;;4.85;;
14040;SDS011;7095;51.388;6.196;2023-07-09T12:16:48;10.32;;;4.90;;
14040;SDS011;7095;51.388;6.196;2023-07-09T12:19:18;7.00;;;5.30;;
14040;SDS011;7095;51.388;6.196;2023-07-09T12:21:49;6.75;;;5.05;;
14040;SDS011;7095;51.388;6.196;2023-07-09T12:24:23;11.50;;;5.10;;
14040;SDS011;7095;51.388;6.196;2023-07-09T12:26:53;8.27;;;4.78;;
14040;SDS011;7095;51.388;6.196;2023-07-09T12:29:25;6.57;;;4.80;;
14040;SDS011;7095;51.388;6.196;2023-07-09T12:31:55;7.22;;;4.85;;
14040;SDS011;7095;51.388;6.196;2023-07-09T12:34:24;8.15;;;5.47;;
14040;SDS011;7095;51.388;6.196;2023-07-09T12:36:53;5.18;;;4.50;;
14040;SDS011;7095;51.388;6.196;2023-07-09T12:39:25;8.55;;;4.65;;
14040;SDS011;7095;51.388;6.196;2023-07-09T12:41:58;7.85;;;4.43;;
14040;SDS011;7095;51.388;6.196;2023-07-09T12:44:29;7.80;;;4.40;;
14040;SDS011;7095;51.388;6.196;2023-07-09T12:47:02;6.57;;;4.70;;
14040;SDS011;7095;51.388;6.196;2023-07-09T12:49:41;11.63;;;5.38;;
14040;SDS011;7095;51.388;6.196;2023-07-09T12:52:12;8.63;;;4.78;;
14040;SDS011;7095;51.388;6.196;2023-07-09T12:54:52;11.05;;;5.32;;
14040;SDS011;7095;51.388;6.196;2023-07-09T12:57:24;7.75;;;4.85;;
14040;SDS011;7095;51.388;6.196;2023-07-09T12:59:54;8.90;;;4.47;;
14040;SDS011;7095;51.388;6.196;2023-07-09T13:02:24;12.98;;;5.13;;
14040;SDS011;7095;51.388;6.196;2023-07-09T13:04:59;7.18;;;5.05;;
14040;SDS011;7095;51.388;6.196;2023-07-09T13:07:30;7.45;;;4.00;;
14040;SDS011;7095;51.388;6.196;2023-07-09T13:10:07;6.55;;;4.65;;
14040;SDS011;7095;51.388;6.196;2023-07-09T13:12:45;4.97;;;4.20;;
14040;SDS011;7095;51.388;6.196;2023-07-09T13:15:23;7.65;;;4.07;;
14040;SDS011;7095;51.388;6.196;2023-07-09T13:17:57;6.78;;;4.35;;
14040;SDS011;7095;51.388;6.196;2023-07-09T13:20:27;9.50;;;4.45;;
14040;SDS011;7095;51.388;6.196;2023-07-09T13:22:56;6.95;;;4.28;;
14040;SDS011;7095;51.388;6.196;2023-07-09T13:25:27;6.10;;;4.70;;
14040;SDS011;7095;51.388;6.196;2023-07-09T13:28:16;10.32;;;4.80;;
14040;SDS011;7095;51.388;6.196;2023-07-09T13:30:46;6.80;;;4.97;;
14040;SDS011;7095;51.388;6.196;2023-07-09T13:33:16;6.60;;;4.38;;
14040;SDS011;7095;51.388;6.196;2023-07-09T13:35:45;7.88;;;4.75;;
14040;SDS011;7095;51.388;6.196;2023-07-09T13:38:15;8.50;;;4.55;;
14040;SDS011;7095;51.388;6.196;2023-07-09T13:40:47;12.57;;;5.00;;
14040;SDS011;7095;51.388;6.196;2023-07-09T13:43:18;9.10;;;4.57;;
14040;SDS011;7095;51.388;6.196;2023-07-09T13:45:50;8.35;;;4.70;;
14040;SDS011;7095;51.388;6.196;2023-07-09T13:48:19;7.03;;;4.60;;
14040;SDS011;7095;51.388;6.196;2023-07-09T13:50:49;8.85;;;4.72;;
14040;SDS011;7095;51.388;6.196;2023-07-09T13:53:20;9.15;;;4.78;;
14040;SDS011;7095;51.388;6.196;2023-07-09T13:55:51;7.00;;;4.90;;
14040;SDS011;7095;51.388;6.196;2023-07-09T13:58:21;7.82;;;5.38;;
14040;SDS011;7095;51.388;6.196;2023-07-09T14:00:54;6.93;;;5.55;;
14040;SDS011;7095;51.388;6.196;2023-07-09T14:03:33;11.25;;;5.43;;
14040;SDS011;7095;51.388;6.196;2023-07-09T14:06:03;49.35;;;9.23;;
14040;SDS011;7095;51.388;6.196;2023-07-09T14:08:32;11.30;;;5.65;;
14040;SDS011;7095;51.388;6.196;2023-07-09T14:11:02;15.18;;;6.05;;
14040;SDS011;7095;51.388;6.196;2023-07-09T14:13:32;9.63;;;6.00;;
14040;SDS011;7095;51.388;6.196;2023-07-09T14:16:01;7.78;;;4.38;;
14040;SDS011;7095;51.388;6.196;2023-07-09T14:18:30;5.63;;;4.40;;
14040;SDS011;7095;51.388;6.196;2023-07-09T14:20:59;6.85;;;3.38;;
14040;SDS011;7095;51.388;6.196;2023-07-09T14:23:28;6.35;;;3.50;;
14040;SDS011;7095;51.388;6.196;2023-07-09T14:25:57;5.55;;;3.50;;
14040;SDS011;7095;51.388;6.196;2023-07-09T14:28:27;6.47;;;3.63;;
14040;SDS011;7095;51.388;6.196;2023-07-09T14:30:56;7.57;;;4.88;;
14040;SDS011;7095;51.388;6.196;2023-07-09T14:33:24;7.53;;;4.50;;
14040;SDS011;7095;51.388;6.196;2023-07-09T14:35:53;10.67;;;5.43;;
14040;SDS011;7095;51.388;6.196;2023-07-09T14:38:22;8.97;;;5.37;;
14040;SDS011;7095;51.388;6.196;2023-07-09T14:40:52;10.43;;;8.10;;
14040;SDS011;7095;51.388;6.196;2023-07-09T14:43:24;14.37;;;11.00;;
14040;SDS011;7095;51.388;6.196;2023-07-09T14:45:56;16.47;;;14.20;;
14040;SDS011;7095;51.388;6.196;2023-07-09T14:48:24;23.23;;;16.93;;
14040;SDS011;7095;51.388;6.196;2023-07-09T14:50:53;23.53;;;19.83;;
14040;SDS011;7095;51.388;6.196;2023-07-09T14:53:23;26.57;;;20.83;;
14040;SDS011;7095;51.388;6.196;2023-07-09T14:55:54;28.70;;;23.67;;
14040;SDS011;7095;51.388;6.196;2023-07-09T14:58:23;32.17;;;26.73;;
14040;SDS011;7095;51.388;6.196;2023-07-09T15:00:52;38.17;;;27.47;;
14040;SDS011;7095;51.388;6.196;2023-07-09T15:03:24;38.00;;;29.33;;
14040;SDS011;7095;51.388;6.196;2023-07-09T15:05:55;32.57;;;29.07;;
14040;SDS011;7095;51.388;6.196;2023-07-09T15:08:24;34.83;;;28.53;;
14040;SDS011;7095;51.388;6.196;2023-07-09T15:10:53;32.37;;;28.83;;
14040;SDS011;7095;51.388;6.196;2023-07-09T15:13:26;33.60;;;26.50;;
14040;SDS011;7095;51.388;6.196;2023-07-09T15:15:58;27.57;;;23.67;;